Time;durP1;ratioP1;P1;durP2;ratioP2;P2;SDS_P1;SDS_P2;PMS_P1;PMS_P2;Temp;Humidity;BMP_temperature;BMP_pressure;BME280_temperature;BME280_humidity;BME280_pressure;Samples;Min_cycle;Max_cycle;Signal;HPM_P1;HPM_P2
2023/06/03 00:00:43;;;;;;;8.30;6.03;;;;;;;7.58;100.00;101877.81;6244753;23;20004;-84
2023/06/03 00:03:11;;;;;;;8.13;6.38;;;;;;;7.70;100.00;101911.59;6244994;23;20001;-85
2023/06/03 00:05:38;;;;;;;10.57;7.32;;;;;;;7.58;100.00;101910.75;6246013;22;20070;-86
2023/06/03 00:08:04;;;;;;;8.25;6.57;;;;;;;7.33;100.00;101890.56;6194642;23;20012;-85
2023/06/03 00:10:30;;;;;;;9.52;6.70;;;;;;;7.27;100.00;101902.59;6244853;23;20004;-87
2023/06/03 00:12:55;;;;;;;7.10;4.50;;;;;;;7.14;100.00;101909.06;6194611;23;20104;-86
2023/06/03 00:15:21;;;;;;;9.90;6.25;;;;;;;7.13;100.00;101907.38;6194430;23;20341;-85
2023/06/03 00:17:46;;;;;;;13.32;6.20;;;;;;;7.15;100.00;101910.78;6220741;23;20007;-88
2023/06/03 00:20:12;;;;;;;9.10;6.47;;;;;;;7.12;100.00;101900.31;6246297;23;20000;-85
2023/06/03 00:22:39;;;;;;;7.95;5.38;;;;;;;7.06;100.00;101907.03;6221647;23;20004;-84
2023/06/03 00:25:07;;;;;;;9.27;5.47;;;;;;;7.13;100.00;101915.41;6196558;23;20310;-86
2023/06/03 00:27:33;;;;;;;8.73;5.75;;;;;;;7.14;100.00;101909.91;6266071;23;20015;-84
2023/06/03 00:30:00;;;;;;;14.65;6.10;;;;;;;7.09;100.00;101909.44;6273687;23;20036;-85
2023/06/03 00:32:26;;;;;;;9.20;5.75;;;;;;;7.10;100.00;101913.00;6198211;23;20429;-88
2023/06/03 00:34:51;;;;;;;9.40;6.18;;;;;;;7.05;100.00;101914.19;6196061;23;20007;-86
2023/06/03 00:37:17;;;;;;;8.48;5.18;;;;;;;6.96;100.00;101906.06;6246314;23;20012;-86
2023/06/03 00:39:43;;;;;;;8.48;5.32;;;;;;;6.94;100.00;101918.72;6196035;23;20498;-85
2023/06/03 00:42:08;;;;;;;10.57;5.55;;;;;;;6.93;100.00;101915.22;6220996;23;20011;-88
2023/06/03 00:44:34;;;;;;;8.18;5.22;;;;;;;6.88;100.00;101920.09;6220770;23;20000;-87
2023/06/03 00:46:59;;;;;;;11.57;5.07;;;;;;;6.82;100.00;101909.84;6220723;23;20332;-87
2023/06/03 00:49:25;;;;;;;9.10;5.80;;;;;;;6.88;100.00;101919.22;6195769;23;20004;-86
2023/06/03 00:51:51;;;;;;;8.45;5.47;;;;;;;6.79;100.00;101916.31;6246333;23;20062;-87
2023/06/03 00:54:17;;;;;;;8.13;5.18;;;;;;;6.76;100.00;101913.88;6195845;23;20004;-87
2023/06/03 00:56:43;;;;;;;10.85;5.18;;;;;;;6.77;100.00;101917.41;6195899;23;20011;-83
2023/06/03 00:59:15;;;;;;;7.93;5.05;;;;;;;6.70;100.00;101918.88;6195636;23;20502;-86
2023/06/03 01:01:42;;;;;;;7.75;5.03;;;;;;;6.58;100.00;101918.84;6195795;23;20015;-84
2023/06/03 01:04:10;;;;;;;7.60;4.95;;;;;;;6.51;100.00;101917.66;6246147;23;19996;-90
2023/06/03 01:06:45;;;;;;;8.05;5.18;;;;;;;6.48;100.00;101917.88;6221116;23;20011;-85
2023/06/03 01:09:31;;;;;;;7.28;4.95;;;;;;;6.43;100.00;101900.50;6221666;23;20016;-85
2023/06/03 01:12:05;;;;;;;8.88;5.15;;;;;;;6.57;100.00;101919.84;6195810;23;20003;-85
2023/06/03 01:14:55;;;;;;;7.63;4.97;;;;;;;6.51;100.00;101911.44;6246089;23;20034;-86
2023/06/03 01:17:24;;;;;;;9.93;4.57;;;;;;;6.47;100.00;101926.03;6196196;23;20387;-86
2023/06/03 01:19:51;;;;;;;6.78;4.68;;;;;;;6.30;100.00;101919.34;6246003;23;20339;-88
2023/06/03 01:22:21;;;;;;;7.45;4.53;;;;;;;6.19;100.00;101909.47;6246346;23;20087;-86
2023/06/03 01:24:50;;;;;;;6.82;4.55;;;;;;;6.11;100.00;101918.09;6246011;23;20011;-85
2023/06/03 01:27:16;;;;;;;6.55;4.65;;;;;;;5.94;100.00;101910.53;6195817;23;20372;-85
2023/06/03 01:29:43;;;;;;;8.95;4.85;;;;;;;5.86;100.00;101907.56;6195342;23;20000;-86
2023/06/03 01:32:13;;;;;;;7.00;5.15;;;;;;;5.79;100.00;101914.31;6195522;23;20023;-85
2023/06/03 01:34:40;;;;;;;8.48;5.13;;;;;;;5.73;100.00;101913.81;6245578;23;20432;-83
2023/06/03 01:37:07;;;;;;;7.45;4.32;;;;;;;5.57;100.00;101918.63;6245797;23;20040;-88
2023/06/03 01:39:33;;;;;;;7.38;5.03;;;;;;;5.54;100.00;101926.00;6245452;23;20001;-85
2023/06/03 01:41:59;;;;;;;6.75;4.22;;;;;;;5.50;100.00;101917.34;6220487;23;20078;-85
2023/06/03 01:44:24;;;;;;;7.30;4.28;;;;;;;5.36;100.00;101904.22;6220554;23;20039;-88
2023/06/03 01:46:50;;;;;;;8.10;4.32;;;;;;;5.43;100.00;101924.13;6220587;23;20008;-89
2023/06/03 01:49:17;;;;;;;5.78;3.72;;;;;;;5.45;100.00;101927.53;6245668;23;20050;-88
2023/06/03 01:51:43;;;;;;;8.23;5.07;;;;;;;5.39;100.00;101926.16;6246113;23;20011;-87
2023/06/03 01:54:09;;;;;;;8.77;4.13;;;;;;;5.33;100.00;101917.78;6245885;23;20004;-86
2023/06/03 01:56:35;;;;;;;5.78;3.92;;;;;;;5.27;100.00;101925.25;6220410;23;20015;-86
2023/06/03 01:59:01;;;;;;;8.43;4.22;;;;;;;5.18;100.00;101917.91;6220379;23;20004;-86
2023/06/03 02:01:26;;;;;;;10.23;4.10;;;;;;;5.19;100.00;101922.31;6195066;23;20008;-89
2023/06/03 02:03:52;;;;;;;7.07;3.95;;;;;;;5.13;100.00;101920.06;6194840;23;20004;-85
2023/06/03 02:06:18;;;;;;;7.03;4.45;;;;;;;5.11;100.00;101922.03;6195278;23;20031;-85
2023/06/03 02:08:43;;;;;;;6.40;4.25;;;;;;;5.14;100.00;101919.13;6220050;23;20001;-88
2023/06/03 02:11:09;;;;;;;7.45;4.07;;;;;;;5.02;100.00;101915.53;6195221;23;20437;-86
2023/06/03 02:13:35;;;;;;;9.00;4.72;;;;;;;5.01;100.00;101931.66;6195229;23;20368;-88
2023/06/03 02:16:00;;;;;;;6.90;4.07;;;;;;;5.05;100.00;101927.78;6195104;23;20503;-87
2023/06/03 02:18:26;;;;;;;7.65;4.68;;;;;;;4.91;100.00;101914.59;6247031;22;20000;-84
2023/06/03 02:20:52;;;;;;;6.85;4.35;;;;;;;4.94;100.00;101927.72;6245193;23;20000;-89
2023/06/03 02:23:18;;;;;;;6.07;4.18;;;;;;;4.93;100.00;101926.03;6245532;23;20012;-87
2023/06/03 02:25:43;;;;;;;6.13;4.07;;;;;;;4.84;100.00;101922.19;6195084;23;20342;-86
2023/06/03 02:28:09;;;;;;;7.22;4.18;;;;;;;4.80;100.00;101929.56;6195076;23;20004;-86
2023/06/03 02:30:34;;;;;;;7.10;4.45;;;;;;;4.68;100.00;101924.25;6244839;23;20004;-88
2023/06/03 02:33:00;;;;;;;6.43;3.70;;;;;;;4.63;100.00;101930.75;6219972;23;20012;-88
2023/06/03 02:35:26;;;;;;;6.13;4.00;;;;;;;4.64;100.00;101931.59;6195057;23;20004;-87
2023/06/03 02:37:51;;;;;;;6.57;4.25;;;;;;;4.67;100.00;101927.88;6194596;23;20075;-86
2023/06/03 02:40:20;;;;;;;6.85;4.13;;;;;;;4.69;100.00;101929.47;6219699;23;20123;-88
2023/06/03 02:42:45;;;;;;;7.00;4.50;;;;;;;4.76;100.00;101935.19;6220572;23;19996;-88
2023/06/03 02:45:11;;;;;;;6.07;4.05;;;;;;;4.79;100.00;101943.84;6194581;23;20011;-87
2023/06/03 02:47:37;;;;;;;8.23;4.97;;;;;;;4.77;100.00;101936.94;6220402;23;20480;-89
2023/06/03 02:50:02;;;;;;;8.00;4.18;;;;;;;4.60;100.00;101930.09;6248286;23;20053;-86
2023/06/03 02:52:28;;;;;;;5.85;4.18;;;;;;;4.64;100.00;101928.94;6212491;23;20004;-83
2023/06/03 02:54:56;;;;;;;7.75;4.50;;;;;;;4.62;100.00;101929.03;6223577;23;20068;-84
2023/06/03 02:57:22;;;;;;;9.38;4.68;;;;;;;4.76;100.00;101929.88;6205997;23;20012;-87
2023/06/03 02:59:48;;;;;;;8.57;4.80;;;;;;;4.69;100.00;101931.28;6220434;23;20036;-89
2023/06/03 03:02:16;;;;;;;8.63;4.60;;;;;;;4.61;100.00;101911.38;6194822;23;20066;-88
2023/06/03 03:04:42;;;;;;;8.30;4.82;;;;;;;4.65;100.00;101919.97;6220045;23;20004;-89
2023/06/03 03:07:08;;;;;;;6.03;4.53;;;;;;;4.72;100.00;101926.59;6219991;23;20008;-91
2023/06/03 03:09:34;;;;;;;7.28;4.65;;;;;;;4.66;100.00;101912.84;6220032;23;20046;-87
2023/06/03 03:12:00;;;;;;;7.07;4.38;;;;;;;4.56;100.00;101917.97;6245314;23;20012;-89
2023/06/03 03:14:26;;;;;;;7.13;4.97;;;;;;;4.56;100.00;101912.66;6220119;23;20000;-87
2023/06/03 03:16:52;;;;;;;6.65;4.80;;;;;;;4.62;100.00;101920.19;6194895;23;20004;-90
2023/06/03 03:19:18;;;;;;;7.93;4.90;;;;;;;4.69;100.00;101931.28;6194825;23;20020;-86
2023/06/03 03:21:44;;;;;;;6.10;4.72;;;;;;;4.70;100.00;101927.66;6245019;23;20004;-89
2023/06/03 03:24:10;;;;;;;8.40;4.95;;;;;;;4.68;100.00;101929.56;6244778;23;20004;-87
2023/06/03 03:26:36;;;;;;;10.80;4.93;;;;;;;4.53;100.00;101926.19;6246482;22;20008;-88
2023/06/03 03:29:02;;;;;;;5.95;4.50;;;;;;;4.39;100.00;101916.47;6245135;23;20005;-87
2023/06/03 03:31:28;;;;;;;7.50;4.88;;;;;;;4.44;100.00;101938.31;6219956;23;20004;-87
2023/06/03 03:33:54;;;;;;;6.00;4.75;;;;;;;4.44;100.00;101932.16;6219931;23;20019;-87
2023/06/03 03:36:22;;;;;;;9.02;5.57;;;;;;;4.37;100.00;101935.25;6247054;22;20321;-90
2023/06/03 03:39:01;;;;;;;6.95;4.68;;;;;;;4.28;100.00;101922.56;6195061;23;20004;-91
2023/06/03 03:41:26;;;;;;;6.78;4.82;;;;;;;4.33;100.00;101930.22;6245489;23;20031;-87
2023/06/03 03:43:52;;;;;;;6.45;4.50;;;;;;;4.28;100.00;101929.69;6245732;23;20425;-88
2023/06/03 03:46:18;;;;;;;7.38;4.68;;;;;;;4.33;100.00;101931.09;6195441;23;20480;-88
2023/06/03 03:48:45;;;;;;;5.68;4.07;;;;;;;4.39;100.00;101936.00;6220157;23;20004;-89
2023/06/03 03:51:12;;;;;;;6.55;4.47;;;;;;;4.43;100.00;101939.28;6196133;23;20058;-91
2023/06/03 03:53:42;;;;;;;9.13;4.95;;;;;;;4.36;100.00;101946.00;6196840;23;20102;-91
2023/06/03 03:56:10;;;;;;;6.90;4.15;;;;;;;4.36;100.00;101938.84;6196769;23;20322;-87
2023/06/03 03:58:41;;;;;;;7.78;5.10;;;;;;;4.27;100.00;101915.53;6222084;23;20015;-87
2023/06/03 04:01:16;;;;;;;9.35;4.53;;;;;;;4.36;100.00;101941.50;6246849;23;20004;-87
2023/06/03 04:03:48;;;;;;;8.90;4.90;;;;;;;4.31;100.00;101934.81;6246982;23;20332;-86
2023/06/03 04:06:28;;;;;;;8.95;4.82;;;;;;;4.16;100.00;101915.44;6246980;23;20008;-84
2023/06/03 04:08:56;;;;;;;5.97;4.32;;;;;;;4.11;100.00;101922.88;6196745;23;20038;-87
2023/06/03 04:11:27;;;;;;;9.10;5.15;;;;;;;4.14;100.00;101939.50;6246420;23;20000;-86
2023/06/03 04:13:55;;;;;;;8.85;5.60;;;;;;;3.98;100.00;101933.50;6221787;23;20019;-89
2023/06/03 04:17:06;;;;;;;6.40;4.13;;;;;;;3.94;100.00;101930.22;6246465;23;20016;-89
2023/06/03 04:19:41;;;;;;;6.38;4.30;;;;;;;4.02;100.00;101934.16;6140706;23;20376;-87
2023/06/03 04:22:08;;;;;;;8.25;4.65;;;;;;;4.00;100.00;101926.28;6248218;22;20079;-89
2023/06/03 04:24:35;;;;;;;8.13;4.45;;;;;;;4.18;100.00;101940.13;6221460;23;20498;-90
2023/06/03 04:27:02;;;;;;;7.95;4.45;;;;;;;4.21;100.00;101926.63;6221426;23;20417;-90
2023/06/03 04:29:29;;;;;;;8.35;5.18;;;;;;;4.16;100.00;101926.94;6196645;23;20011;-88
2023/06/03 04:31:55;;;;;;;7.63;4.43;;;;;;;4.21;100.00;101931.94;6221485;23;20007;-90
2023/06/03 04:34:21;;;;;;;7.35;4.10;;;;;;;4.27;100.00;101928.84;6221465;23;20004;-87
2023/06/03 04:36:46;;;;;;;7.25;4.50;;;;;;;4.35;100.00;101931.84;6196343;23;20325;-88
2023/06/03 04:39:12;;;;;;;7.13;3.97;;;;;;;4.36;100.00;101927.34;6221143;23;20007;-87
2023/06/03 04:41:38;;;;;;;8.15;4.22;;;;;;;4.50;100.00;101935.25;6246483;23;20000;-88
2023/06/03 04:44:04;;;;;;;7.38;4.78;;;;;;;4.52;100.00;101940.44;6221125;23;20071;-87
2023/06/03 04:46:31;;;;;;;9.13;5.43;;;;;;;4.54;100.00;101942.03;6246259;23;20028;-88
2023/06/03 04:49:01;;;;;;;7.90;4.57;;;;;;;4.54;100.00;101949.19;6196410;23;20012;-90
2023/06/03 04:51:27;;;;;;;8.02;4.90;;;;;;;4.55;100.00;101937.56;6246677;23;20008;-87
2023/06/03 04:53:55;;;;;;;10.98;5.25;;;;;;;4.59;100.00;101939.91;6220881;23;20026;-89
2023/06/03 04:56:21;;;;;;;7.03;5.05;;;;;;;4.56;100.00;101925.97;6246409;23;20004;-90
2023/06/03 04:58:47;;;;;;;9.27;4.68;;;;;;;4.79;100.00;101938.53;6221376;23;20050;-89
2023/06/03 05:01:13;;;;;;;6.68;4.40;;;;;;;4.88;100.00;101931.66;6221375;23;20008;-89
2023/06/03 05:03:38;;;;;;;7.03;4.57;;;;;;;5.04;100.00;101929.59;6198122;23;20018;-88
2023/06/03 05:06:10;;;;;;;7.97;4.28;;;;;;;5.42;100.00;101930.41;6226332;23;20057;-86
2023/06/03 05:08:38;;;;;;;8.05;4.35;;;;;;;6.19;100.00;101938.00;6246877;23;20488;-88
2023/06/03 05:11:07;;;;;;;6.93;4.53;;;;;;;7.37;100.00;101937.47;6195765;23;20000;-87
2023/06/03 05:13:34;;;;;;;6.50;4.03;;;;;;;8.33;100.00;101936.50;6220884;23;20337;-87
2023/06/03 05:16:00;;;;;;;6.63;4.90;;;;;;;9.17;100.00;101938.16;6199224;23;20058;-87
2023/06/03 05:18:26;;;;;;;10.05;5.13;;;;;;;9.87;100.00;101920.13;6265521;23;19996;-85
2023/06/03 05:20:51;;;;;;;8.18;4.78;;;;;;;10.47;100.00;101930.66;6274554;22;20054;-86
2023/06/03 05:23:17;;;;;;;8.00;5.00;;;;;;;10.71;100.00;101938.19;6274212;22;20012;-86
2023/06/03 05:25:42;;;;;;;4.72;3.80;;;;;;;11.29;100.00;101939.75;6267351;22;20011;-89
2023/06/03 05:28:08;;;;;;;7.78;4.82;;;;;;;11.81;100.00;101939.94;6247742;22;20459;-89
2023/06/03 05:30:36;;;;;;;6.75;4.75;;;;;;;12.30;100.00;101940.34;6246231;23;20326;-91
2023/06/03 05:33:02;;;;;;;6.63;4.68;;;;;;;12.44;100.00;101944.31;6221607;23;20011;-89
2023/06/03 05:35:28;;;;;;;6.85;4.72;;;;;;;12.04;100.00;101937.59;6206383;23;20002;-87
2023/06/03 05:37:53;;;;;;;7.93;4.78;;;;;;;11.88;100.00;101939.19;6215696;23;20019;-87
2023/06/03 05:40:19;;;;;;;4.60;3.50;;;;;;;11.63;100.00;101942.63;6271346;22;20012;-90
2023/06/03 05:42:47;;;;;;;8.85;5.10;;;;;;;11.87;100.00;101940.19;6249974;23;20028;-90
2023/06/03 05:45:13;;;;;;;7.68;4.78;;;;;;;12.80;100.00;101946.88;6246347;23;20000;-88
2023/06/03 05:47:39;;;;;;;10.73;4.80;;;;;;;13.57;96.32;101937.69;6195517;23;20023;-88
2023/06/03 05:50:06;;;;;;;13.10;4.78;;;;;;;14.16;92.41;101942.13;6247281;22;20478;-88
2023/06/03 05:52:31;;;;;;;8.02;5.20;;;;;;;14.56;89.08;101932.25;6245955;23;20023;-87
2023/06/03 05:54:57;;;;;;;7.22;3.65;;;;;;;15.09;84.64;101945.09;6245837;23;20321;-88
2023/06/03 05:57:26;;;;;;;5.57;3.15;;;;;;;15.41;80.25;101945.94;6245779;23;20000;-87
2023/06/03 05:59:51;;;;;;;6.25;3.80;;;;;;;15.55;79.24;101949.72;6220446;23;20008;-85
2023/06/03 06:02:18;;;;;;;8.73;5.13;;;;;;;15.79;80.63;101946.88;6245901;23;20328;-88
2023/06/03 06:04:44;;;;;;;4.43;3.47;;;;;;;16.24;76.86;101949.72;6220340;23;20036;-89
2023/06/03 06:07:10;;;;;;;6.53;4.38;;;;;;;16.43;74.35;101953.75;6195375;23;20015;-90
2023/06/03 06:09:35;;;;;;;7.03;5.13;;;;;;;16.56;73.76;101953.97;6245737;23;20061;-88
2023/06/03 06:12:01;;;;;;;5.97;3.33;;;;;;;16.73;70.84;101960.06;6195405;23;20000;-90
2023/06/03 06:14:27;;;;;;;8.35;4.95;;;;;;;16.88;70.62;101951.94;6245097;23;20011;-88
2023/06/03 06:16:53;;;;;;;8.30;5.03;;;;;;;17.22;71.27;101955.94;6219978;23;20012;-85
2023/06/03 06:19:19;;;;;;;6.13;3.42;;;;;;;17.72;65.18;101948.75;6245616;23;20008;-87
2023/06/03 06:21:47;;;;;;;4.50;3.65;;;;;;;17.74;65.71;101954.84;6245393;23;20015;-89
2023/06/03 06:24:13;;;;;;;6.93;5.00;;;;;;;17.92;65.24;101963.41;6245385;23;20008;-87
2023/06/03 06:26:39;;;;;;;11.07;4.93;;;;;;;18.16;67.18;101962.16;6220650;23;20008;-86
2023/06/03 06:29:05;;;;;;;5.90;4.55;;;;;;;18.46;61.58;101960.06;6195288;23;20011;-88
2023/06/03 06:31:32;;;;;;;6.53;4.68;;;;;;;18.58;61.85;101965.81;6196199;23;20000;-86
2023/06/03 06:34:00;;;;;;;7.47;4.53;;;;;;;18.80;61.81;101963.88;6196621;23;20008;-86
2023/06/03 06:36:39;;;;;;;5.70;3.88;;;;;;;19.07;59.33;101955.84;6195289;23;20065;-91
2023/06/03 06:39:14;;;;;;;6.65;5.45;;;;;;;19.23;59.04;101957.38;6195939;23;20087;-85
2023/06/03 06:41:40;;;;;;;6.63;4.95;;;;;;;19.53;58.16;101957.91;6246360;23;20079;-86
2023/06/03 06:44:05;;;;;;;4.10;2.90;;;;;;;19.75;55.80;101951.25;6220871;23;20079;-85
2023/06/03 06:46:34;;;;;;;8.05;5.15;;;;;;;19.87;56.23;101956.09;6195805;23;20004;-91
2023/06/03 06:49:02;;;;;;;7.00;4.35;;;;;;;20.10;55.95;101953.78;6220179;23;20058;-89
2023/06/03 06:51:31;;;;;;;6.55;4.72;;;;;;;20.41;55.64;101953.16;6195085;23;20004;-89
2023/06/03 06:53:58;;;;;;;6.53;4.65;;;;;;;20.70;51.91;101958.41;6194934;23;20008;-87
2023/06/03 06:56:25;;;;;;;7.80;5.00;;;;;;;20.77;52.60;101959.19;6221623;23;20464;-87
2023/06/03 06:58:51;;;;;;;8.35;3.63;;;;;;;20.92;50.70;101961.69;6220071;23;20332;-91
2023/06/03 07:01:17;;;;;;;9.18;4.82;;;;;;;21.08;50.47;101950.25;6244584;23;20004;-86
2023/06/03 07:03:42;;;;;;;10.27;4.72;;;;;;;21.16;50.08;101951.91;6246244;22;20004;-86
2023/06/03 07:06:08;;;;;;;7.93;5.10;;;;;;;21.51;50.39;101953.25;6245243;23;20416;-89
2023/06/03 07:08:34;;;;;;;6.32;4.13;;;;;;;21.76;47.96;101957.94;6246287;22;20004;-88
2023/06/03 07:11:02;;;;;;;6.28;4.53;;;;;;;21.85;48.51;101956.59;6219537;23;20004;-86
2023/06/03 07:13:28;;;;;;;9.45;5.22;;;;;;;22.10;46.41;101945.66;6194745;23;20061;-87
2023/06/03 07:15:55;;;;;;;7.32;3.83;;;;;;;22.30;45.05;101947.41;6245282;23;20075;-87
2023/06/03 07:18:21;;;;;;;5.72;4.82;;;;;;;22.33;45.81;101946.94;6227355;23;20016;-86
2023/06/03 07:20:47;;;;;;;6.22;4.43;;;;;;;22.60;46.16;101947.53;6238523;23;20030;-86
2023/06/03 07:23:20;;;;;;;3.92;2.97;;;;;;;22.87;43.60;101937.09;6214904;23;20008;-86
2023/06/03 07:25:50;;;;;;;9.00;4.28;;;;;;;23.02;42.92;101944.97;6225422;23;20011;-88
2023/06/03 07:28:22;;;;;;;6.38;4.53;;;;;;;23.34;43.36;101948.38;6249795;23;20444;-88
2023/06/03 07:30:49;;;;;;;5.60;4.53;;;;;;;23.83;43.85;101953.78;6248124;23;20376;-87
2023/06/03 07:33:34;;;;;;;7.13;4.78;;;;;;;24.33;42.63;101958.88;6198495;23;20028;-85
2023/06/03 07:36:00;;;;;;;;;;;;;;;24.59;41.65;101960.34;6198034;23;20047;-85
2023/06/03 07:38:59;;;;;;;7.95;4.13;;;;;;;25.15;40.66;101957.94;6265578;23;19903;-83
2023/06/03 07:41:36;;;;;;;5.10;3.92;;;;;;;25.44;38.61;101947.81;6220224;23;20008;-82
2023/06/03 07:44:07;;;;;;;5.57;3.50;;;;;;;25.55;36.70;101957.09;6250220;23;20004;-84
2023/06/03 07:46:39;;;;;;;6.82;3.22;;;;;;;25.26;38.42;101943.34;6204325;23;20004;-82
2023/06/03 07:49:08;;;;;;;6.40;3.22;;;;;;;25.61;38.75;101954.16;6227926;23;20004;-83
2023/06/03 07:51:34;;;;;;;5.55;4.25;;;;;;;25.88;38.32;101959.13;6248735;23;20078;-82
2023/06/03 07:54:03;;;;;;;6.72;4.03;;;;;;;26.04;37.68;101954.69;6226866;23;20314;-83
2023/06/03 07:56:28;;;;;;;6.25;4.22;;;;;;;26.36;36.19;101951.31;6205153;23;20065;-88
2023/06/03 07:58:54;;;;;;;4.97;3.55;;;;;;;26.65;37.24;101952.06;6249325;23;20122;-86
2023/06/03 08:01:23;;;;;;;5.28;3.88;;;;;;;26.97;36.92;101949.44;6227120;23;20091;-86
2023/06/03 08:03:49;;;;;;;7.10;4.03;;;;;;;27.10;36.28;101948.22;6202311;23;20012;-87
2023/06/03 08:06:15;;;;;;;5.60;3.67;;;;;;;27.32;35.91;101954.56;6228790;23;20066;-86
2023/06/03 08:08:41;;;;;;;5.10;3.75;;;;;;;27.71;34.93;101942.53;6251770;23;20004;-88
2023/06/03 08:11:08;;;;;;;6.38;4.20;;;;;;;28.43;34.48;101961.41;6247827;23;20004;-89
2023/06/03 08:13:34;;;;;;;5.80;3.85;;;;;;;28.62;33.36;101950.72;6249756;23;20004;-88
2023/06/03 08:16:00;;;;;;;7.07;4.20;;;;;;;29.08;33.02;101955.66;6248021;23;20539;-89
2023/06/03 08:18:47;;;;;;;4.90;3.30;;;;;;;29.62;30.73;101966.31;6224501;23;20068;-87
2023/06/03 08:21:12;;;;;;;5.97;3.80;;;;;;;29.32;31.68;101944.91;6228580;23;20023;-88
2023/06/03 08:23:38;;;;;;;6.75;3.70;;;;;;;29.22;31.21;101959.59;6255487;23;20000;-86
2023/06/03 08:26:05;;;;;;;7.03;4.05;;;;;;;28.77;30.86;101947.19;6223177;23;20397;-84
2023/06/03 08:28:30;;;;;;;7.22;4.03;;;;;;;28.74;32.09;101952.41;6233525;23;20072;-85
2023/06/03 08:30:56;;;;;;;6.50;4.03;;;;;;;29.00;31.09;101964.44;6219844;23;20005;-87
2023/06/03 08:33:22;;;;;;;5.60;3.67;;;;;;;28.78;32.74;101956.34;6228259;23;20007;-86
2023/06/03 08:35:50;;;;;;;7.15;3.97;;;;;;;29.22;31.39;101956.81;6252748;22;20103;-83
2023/06/03 08:38:16;;;;;;;6.50;3.50;;;;;;;29.23;29.81;101966.78;6247887;23;20011;-86
2023/06/03 08:40:49;;;;;;;6.60;3.55;;;;;;;29.07;31.79;101962.28;6248951;23;20011;-85
2023/06/03 08:43:16;;;;;;;5.07;4.38;;;;;;;29.50;29.96;101968.50;6251256;23;20000;-85
2023/06/03 08:46:16;;;;;;;5.25;3.78;;;;;;;29.47;30.23;101949.66;6249896;23;20033;-84
2023/06/03 08:49:01;;;;;;;6.35;3.70;;;;;;;30.03;29.39;101960.81;6245267;23;20448;-78
2023/06/03 08:51:26;;;;;;;7.40;3.80;;;;;;;29.88;28.32;101963.63;6244945;23;20031;-79
2023/06/03 08:53:52;;;;;;;8.32;3.25;;;;;;;29.75;29.27;101967.75;6221149;23;20413;-80
2023/06/03 08:56:20;;;;;;;7.40;3.65;;;;;;;30.02;27.82;101946.13;6195818;23;20034;-79
2023/06/03 08:58:55;;;;;;;6.28;3.45;;;;;;;30.24;28.05;101958.88;6195794;23;20012;-79
2023/06/03 09:01:34;;;;;;;5.30;3.20;;;;;;;29.96;28.62;101946.41;6220901;23;20444;-79
2023/06/03 09:04:00;;;;;;;4.43;3.20;;;;;;;30.21;29.46;101957.47;6221146;23;20004;-78
2023/06/03 09:06:26;;;;;;;7.22;3.42;;;;;;;30.47;28.79;101957.47;6246145;23;20000;-79
2023/06/03 09:08:53;;;;;;;4.85;3.08;;;;;;;30.81;28.78;101951.28;6220591;23;20007;-79
2023/06/03 09:11:19;;;;;;;6.07;3.58;;;;;;;31.33;27.10;101936.84;6171024;23;20452;-79
2023/06/03 09:13:45;;;;;;;7.65;3.50;;;;;;;31.49;27.83;101961.78;6247590;22;20040;-79
2023/06/03 09:16:13;;;;;;;5.85;3.50;;;;;;;31.16;28.11;101952.25;6220946;23;20146;-80
2023/06/03 09:18:38;;;;;;;6.35;3.67;;;;;;;31.02;28.12;101947.31;6195627;23;20016;-79
2023/06/03 09:21:08;;;;;;;6.90;3.67;;;;;;;30.82;28.20;101950.16;6246026;23;20008;-79
2023/06/03 09:23:34;;;;;;;5.32;3.65;;;;;;;30.84;29.37;101948.78;6195522;23;20000;-79
2023/06/03 09:26:00;;;;;;;5.35;3.30;;;;;;;31.44;28.84;101950.72;6170733;23;20054;-79
2023/06/03 09:28:26;;;;;;;6.57;3.20;;;;;;;31.55;27.90;101941.19;6245421;23;19996;-80
2023/06/03 09:30:52;;;;;;;8.82;3.80;;;;;;;31.94;27.25;101934.75;6220644;23;20008;-79
2023/06/03 09:33:18;;;;;;;5.60;3.30;;;;;;;32.40;26.08;101921.22;6245446;23;20004;-79
2023/06/03 09:35:43;;;;;;;6.82;3.38;;;;;;;32.29;26.67;101944.75;6247350;22;20004;-81
2023/06/03 09:38:09;;;;;;;4.53;2.90;;;;;;;31.80;26.60;101934.59;6245796;23;20004;-81
2023/06/03 09:40:35;;;;;;;4.00;3.15;;;;;;;31.02;28.21;101941.75;6220597;23;20007;-81
2023/06/03 09:43:09;;;;;;;8.70;3.47;;;;;;;31.13;28.20;101936.97;6220384;23;20004;-81
2023/06/03 09:45:35;;;;;;;5.70;4.00;;;;;;;31.20;27.90;101939.41;6195390;23;20000;-81
2023/06/03 09:48:02;;;;;;;6.88;3.45;;;;;;;30.97;28.38;101949.28;6220608;23;20483;-81
2023/06/03 09:50:31;;;;;;;6.70;3.22;;;;;;;31.15;28.85;101943.09;6220255;23;20004;-81
2023/06/03 09:52:58;;;;;;;5.70;3.10;;;;;;;31.53;26.82;101943.41;6246834;22;19996;-80
2023/06/03 09:55:32;;;;;;;3.60;2.67;;;;;;;31.46;27.49;101940.13;6195245;23;20004;-80
2023/06/03 09:58:12;;;;;;;4.47;2.92;;;;;;;31.52;25.68;101937.03;6220446;23;20011;-80
2023/06/03 10:00:51;;;;;;;4.68;3.42;;;;;;;30.71;28.50;101931.88;6245138;23;20451;-80
2023/06/03 10:03:20;;;;;;;5.82;3.40;;;;;;;31.06;26.65;101930.91;6220445;23;20480;-80
2023/06/03 10:05:46;;;;;;;4.40;2.75;;;;;;;31.86;25.56;101930.66;6245548;23;20000;-80
2023/06/03 10:08:11;;;;;;;6.38;2.72;;;;;;;31.97;25.48;101934.22;6246916;22;20011;-79
2023/06/03 10:10:58;;;;;;;3.30;2.80;;;;;;;31.77;24.30;101935.16;6246907;22;20000;-80
2023/06/03 10:13:24;;;;;;;4.97;3.08;;;;;;;31.51;25.30;101921.47;6245551;23;20031;-79
2023/06/03 10:15:52;;;;;;;3.60;2.80;;;;;;;31.59;24.39;101928.34;6245336;23;20012;-79
2023/06/03 10:18:20;;;;;;;3.58;2.88;;;;;;;31.76;24.20;101933.53;6245538;23;20004;-80
2023/06/03 10:20:46;;;;;;;5.30;2.92;;;;;;;32.17;24.18;101930.38;6245345;23;20083;-80
2023/06/03 10:23:12;;;;;;;5.38;2.80;;;;;;;32.45;22.91;101922.31;6220038;23;20004;-79
2023/06/03 10:25:42;;;;;;;5.40;2.95;;;;;;;32.93;22.46;101934.28;6245425;23;20015;-80
2023/06/03 10:28:09;;;;;;;5.13;3.33;;;;;;;33.32;21.94;101915.63;6220034;23;20134;-80
2023/06/03 10:30:35;;;;;;;3.22;2.80;;;;;;;33.35;21.92;101923.41;6245233;23;19996;-81
2023/06/03 10:33:06;;;;;;;4.43;3.70;;;;;;;32.66;23.67;101909.00;6245017;23;20000;-81
2023/06/03 10:35:32;;;;;;;5.78;3.20;;;;;;;32.64;23.12;101914.88;6220586;23;20004;-80
2023/06/03 10:38:03;;;;;;;3.78;2.88;;;;;;;32.72;23.54;101917.00;6244953;23;20385;-81
2023/06/03 10:40:29;;;;;;;4.10;3.25;;;;;;;32.61;23.75;101890.41;6194895;23;20000;-80
2023/06/03 10:42:58;;;;;;;4.85;3.28;;;;;;;32.67;24.11;101919.84;6246743;22;20000;-79
2023/06/03 10:45:26;;;;;;;6.35;4.05;;;;;;;31.86;23.23;101911.19;6244937;23;20008;-79
2023/06/03 10:47:58;;;;;;;4.05;3.53;;;;;;;31.94;24.59;101920.84;6220088;23;20000;-80
2023/06/03 10:50:51;;;;;;;5.55;3.30;;;;;;;32.53;24.90;101916.94;6194820;23;20008;-80
2023/06/03 10:53:16;;;;;;;6.47;3.50;;;;;;;32.94;23.37;101923.94;6246427;23;20004;-79
2023/06/03 10:56:08;;;;;;;4.28;3.30;;;;;;;33.06;22.89;101916.84;6246622;22;20488;-80
2023/06/03 10:58:34;;;;;;;5.65;3.50;;;;;;;33.16;23.90;101915.03;6194806;23;19996;-80
2023/06/03 11:01:00;;;;;;;7.70;3.88;;;;;;;33.34;23.35;101918.94;6244629;23;20016;-80
2023/06/03 11:03:30;;;;;;;4.82;3.83;;;;;;;33.18;22.22;101910.81;6194646;23;20007;-80
2023/06/03 11:06:21;;;;;;;4.82;3.63;;;;;;;33.25;24.13;101911.28;6219915;23;20000;-79
2023/06/03 11:09:02;;;;;;;4.13;3.50;;;;;;;33.32;23.36;101901.69;6245039;23;19996;-80
2023/06/03 11:11:44;;;;;;;4.00;2.42;;;;;;;33.26;22.15;101901.78;6220167;23;20238;-79
2023/06/03 11:14:11;;;;;;;4.03;3.20;;;;;;;32.18;22.80;101881.97;6244936;23;20007;-80
2023/06/03 11:16:58;;;;;;;4.95;4.00;;;;;;;32.16;24.00;101907.31;6194676;23;20008;-80
2023/06/03 11:19:31;;;;;;;5.05;3.90;;;;;;;32.84;23.41;101910.97;6246474;23;20012;-80
2023/06/03 11:21:58;;;;;;;5.90;3.72;;;;;;;32.72;22.58;101902.25;6220007;23;20066;-80
2023/06/03 11:24:42;;;;;;;6.18;3.45;;;;;;;33.17;23.07;101903.59;6246132;22;20005;-80
2023/06/03 11:27:25;;;;;;;;;;;;;;;33.61;22.71;101904.31;6246515;23;20443;-81
2023/06/03 11:29:51;;;;;;;4.82;3.53;;;;;;;34.10;21.13;101889.81;6244775;23;19914;-81